sensor_id;sensor_type;location;lat;lon;timestamp;pressure;altitude;pressure_sealevel;temperature;humidity
57600;BME280;43426;43.594;24.334;2023-03-23T00:01:14;101341.25;;;6.36;100.00
57600;BME280;43426;43.594;24.334;2023-03-23T00:03:40;101341.81;;;6.39;100.00
57600;BME280;43426;43.594;24.334;2023-03-23T00:06:07;101336.81;;;6.46;100.00
57600;BME280;43426;43.594;24.334;2023-03-23T00:08:34;101346.16;;;6.52;100.00
57600;BME280;43426;43.594;24.334;2023-03-23T00:11:04;101354.31;;;6.50;100.00
57600;BME280;43426;43.594;24.334;2023-03-23T00:13:29;101351.16;;;6.56;100.00
57600;BME280;43426;43.594;24.334;2023-03-23T00:15:55;101328.28;;;6.41;100.00
57600;BME280;43426;43.594;24.334;2023-03-23T00:18:25;101338.63;;;6.45;100.00
57600;BME280;43426;43.594;24.334;2023-03-23T00:20:59;101317.13;;;6.36;100.00
57600;BME280;43426;43.594;24.334;2023-03-23T00:23:25;101321.81;;;6.43;100.00
57600;BME280;43426;43.594;24.334;2023-03-23T00:25:55;101318.97;;;6.56;100.00
57600;BME280;43426;43.594;24.334;2023-03-23T00:28:25;101344.28;;;6.63;100.00
57600;BME280;43426;43.594;24.334;2023-03-23T00:31:10;101313.22;;;6.40;100.00
57600;BME280;43426;43.594;24.334;2023-03-23T00:33:36;101317.50;;;6.31;100.00
57600;BME280;43426;43.594;24.334;2023-03-23T00:36:09;101288.97;;;6.09;100.00
57600;BME280;43426;43.594;24.334;2023-03-23T00:38:36;101330.75;;;6.33;100.00
57600;BME280;43426;43.594;24.334;2023-03-23T00:41:02;101308.47;;;6.53;100.00
57600;BME280;43426;43.594;24.334;2023-03-23T00:43:27;101329.34;;;6.50;100.00
57600;BME280;43426;43.594;24.334;2023-03-23T00:45:54;101310.56;;;6.28;100.00
57600;BME280;43426;43.594;24.334;2023-03-23T00:48:20;101299.97;;;6.27;100.00
57600;BME280;43426;43.594;24.334;2023-03-23T00:50:46;101320.44;;;6.28;100.00
57600;BME280;43426;43.594;24.334;2023-03-23T00:53:12;101302.78;;;6.25;100.00
57600;BME280;43426;43.594;24.334;2023-03-23T00:55:39;101322.22;;;6.39;100.00
57600;BME280;43426;43.594;24.334;2023-03-23T00:58:04;101323.88;;;6.51;100.00
57600;BME280;43426;43.594;24.334;2023-03-23T01:00:30;101294.47;;;6.28;100.00
57600;BME280;43426;43.594;24.334;2023-03-23T01:02:56;101287.72;;;6.13;100.00
57600;BME280;43426;43.594;24.334;2023-03-23T01:05:21;101297.53;;;6.03;100.00
57600;BME280;43426;43.594;24.334;2023-03-23T01:07:47;101317.72;;;6.07;100.00
57600;BME280;43426;43.594;24.334;2023-03-23T01:10:13;101322.47;;;6.03;100.00
57600;BME280;43426;43.594;24.334;2023-03-23T01:12:45;101321.03;;;5.99;100.00
57600;BME280;43426;43.594;24.334;2023-03-23T01:15:16;101325.75;;;6.07;100.00
57600;BME280;43426;43.594;24.334;2023-03-23T01:17:43;101311.50;;;6.06;100.00
57600;BME280;43426;43.594;24.334;2023-03-23T01:20:09;101328.91;;;6.12;100.00
57600;BME280;43426;43.594;24.334;2023-03-23T01:22:37;101314.91;;;6.08;100.00
57600;BME280;43426;43.594;24.334;2023-03-23T01:25:02;101338.78;;;6.11;100.00
57600;BME280;43426;43.594;24.334;2023-03-23T01:27:27;101313.00;;;5.88;100.00
57600;BME280;43426;43.594;24.334;2023-03-23T01:29:53;101348.13;;;6.17;100.00
57600;BME280;43426;43.594;24.334;2023-03-23T01:32:18;101328.72;;;6.04;100.00
57600;BME280;43426;43.594;24.334;2023-03-23T01:34:44;101293.66;;;5.84;100.00
57600;BME280;43426;43.594;24.334;2023-03-23T01:37:09;101309.72;;;5.95;100.00
57600;BME280;43426;43.594;24.334;2023-03-23T01:39:37;101317.06;;;6.14;100.00
57600;BME280;43426;43.594;24.334;2023-03-23T01:42:03;101330.66;;;6.34;100.00
57600;BME280;43426;43.594;24.334;2023-03-23T01:46:57;101325.19;;;6.24;100.00
57600;BME280;43426;43.594;24.334;2023-03-23T01:49:28;101307.88;;;6.28;100.00
57600;BME280;43426;43.594;24.334;2023-03-23T01:52:30;101334.19;;;6.35;100.00
57600;BME280;43426;43.594;24.334;2023-03-23T01:54:56;101306.41;;;6.36;100.00
57600;BME280;43426;43.594;24.334;2023-03-23T01:57:25;101276.13;;;5.91;100.00
57600;BME280;43426;43.594;24.334;2023-03-23T01:59:55;101309.25;;;6.23;100.00
57600;BME280;43426;43.594;24.334;2023-03-23T02:02:24;101318.66;;;6.17;100.00
57600;BME280;43426;43.594;24.334;2023-03-23T02:04:50;101322.97;;;6.29;100.00
57600;BME280;43426;43.594;24.334;2023-03-23T02:07:18;101312.66;;;6.25;100.00
57600;BME280;43426;43.594;24.334;2023-03-23T02:09:45;101284.63;;;6.29;100.00
57600;BME280;43426;43.594;24.334;2023-03-23T02:12:10;101325.38;;;6.65;100.00
57600;BME280;43426;43.594;24.334;2023-03-23T02:14:36;101325.09;;;6.47;100.00
57600;BME280;43426;43.594;24.334;2023-03-23T02:17:10;101330.41;;;6.37;100.00
57600;BME280;43426;43.594;24.334;2023-03-23T02:23:11;101336.03;;;6.34;100.00
57600;BME280;43426;43.594;24.334;2023-03-23T02:37:06;101330.41;;;6.37;100.00
57600;BME280;43426;43.594;24.334;2023-03-23T02:39:42;101330.19;;;6.29;100.00
57600;BME280;43426;43.594;24.334;2023-03-23T02:42:12;101326.53;;;6.51;100.00
57600;BME280;43426;43.594;24.334;2023-03-23T02:44:43;101307.16;;;6.69;100.00
57600;BME280;43426;43.594;24.334;2023-03-23T02:47:22;101316.84;;;6.60;100.00
57600;BME280;43426;43.594;24.334;2023-03-23T02:49:52;101318.78;;;6.48;100.00
57600;BME280;43426;43.594;24.334;2023-03-23T02:52:22;101340.72;;;6.63;100.00
57600;BME280;43426;43.594;24.334;2023-03-23T02:54:51;101336.66;;;6.69;100.00
57600;BME280;43426;43.594;24.334;2023-03-23T02:57:18;101324.25;;;6.68;100.00
57600;BME280;43426;43.594;24.334;2023-03-23T02:59:45;101347.59;;;6.77;100.00
57600;BME280;43426;43.594;24.334;2023-03-23T03:02:16;101338.28;;;6.81;100.00
57600;BME280;43426;43.594;24.334;2023-03-23T03:04:49;101344.81;;;6.78;100.00
57600;BME280;43426;43.594;24.334;2023-03-23T03:12:24;101366.84;;;6.82;100.00
57600;BME280;43426;43.594;24.334;2023-03-23T03:15:02;101365.00;;;6.61;100.00
57600;BME280;43426;43.594;24.334;2023-03-23T03:17:35;101362.38;;;6.50;100.00
57600;BME280;43426;43.594;24.334;2023-03-23T03:20:06;101340.00;;;6.40;100.00
57600;BME280;43426;43.594;24.334;2023-03-23T03:22:38;101374.47;;;6.65;100.00
57600;BME280;43426;43.594;24.334;2023-03-23T03:25:08;101374.47;;;6.65;100.00
57600;BME280;43426;43.594;24.334;2023-03-23T03:27:35;101345.78;;;6.56;100.00
57600;BME280;43426;43.594;24.334;2023-03-23T03:30:03;101341.91;;;6.49;100.00
57600;BME280;43426;43.594;24.334;2023-03-23T03:32:44;101377.34;;;6.74;100.00
57600;BME280;43426;43.594;24.334;2023-03-23T03:35:12;101375.72;;;7.04;100.00
57600;BME280;43426;43.594;24.334;2023-03-23T03:37:38;101366.00;;;6.81;100.00
57600;BME280;43426;43.594;24.334;2023-03-23T03:40:10;101368.06;;;6.78;100.00
57600;BME280;43426;43.594;24.334;2023-03-23T03:42:46;101342.09;;;6.57;100.00
57600;BME280;43426;43.594;24.334;2023-03-23T03:45:14;101366.78;;;6.72;100.00
57600;BME280;43426;43.594;24.334;2023-03-23T03:47:40;101327.00;;;6.56;100.00
57600;BME280;43426;43.594;24.334;2023-03-23T03:50:06;101349.31;;;6.78;100.00
57600;BME280;43426;43.594;24.334;2023-03-23T03:52:33;101326.00;;;6.57;100.00
57600;BME280;43426;43.594;24.334;2023-03-23T03:54:58;101359.13;;;6.68;100.00
57600;BME280;43426;43.594;24.334;2023-03-23T03:57:24;101358.78;;;6.82;100.00
57600;BME280;43426;43.594;24.334;2023-03-23T03:59:49;101363.16;;;7.04;100.00
57600;BME280;43426;43.594;24.334;2023-03-23T04:02:16;101358.00;;;6.91;100.00
57600;BME280;43426;43.594;24.334;2023-03-23T04:04:46;101330.06;;;6.73;100.00
57600;BME280;43426;43.594;24.334;2023-03-23T04:07:11;101348.25;;;6.90;100.00
57600;BME280;43426;43.594;24.334;2023-03-23T04:09:44;101353.56;;;6.80;100.00
57600;BME280;43426;43.594;24.334;2023-03-23T04:12:12;101337.13;;;6.74;100.00
57600;BME280;43426;43.594;24.334;2023-03-23T04:14:38;101342.75;;;6.71;100.00
57600;BME280;43426;43.594;24.334;2023-03-23T04:17:03;101353.09;;;6.96;100.00
57600;BME280;43426;43.594;24.334;2023-03-23T04:19:29;101367.56;;;6.84;100.00
57600;BME280;43426;43.594;24.334;2023-03-23T04:21:59;101360.03;;;6.78;100.00
57600;BME280;43426;43.594;24.334;2023-03-23T04:24:24;101349.50;;;6.65;100.00
57600;BME280;43426;43.594;24.334;2023-03-23T04:26:51;101377.56;;;6.82;100.00
57600;BME280;43426;43.594;24.334;2023-03-23T04:29:20;101350.94;;;6.90;100.00
57600;BME280;43426;43.594;24.334;2023-03-23T04:31:45;101348.53;;;6.87;100.00
57600;BME280;43426;43.594;24.334;2023-03-23T04:34:11;101350.75;;;6.82;100.00
57600;BME280;43426;43.594;24.334;2023-03-23T04:36:40;101351.16;;;6.77;100.00
57600;BME280;43426;43.594;24.334;2023-03-23T04:39:06;101374.56;;;6.96;100.00
57600;BME280;43426;43.594;24.334;2023-03-23T04:41:35;101379.38;;;7.03;100.00
57600;BME280;43426;43.594;24.334;2023-03-23T04:44:01;101373.44;;;6.78;100.00
57600;BME280;43426;43.594;24.334;2023-03-23T04:46:29;101374.75;;;6.84;100.00
57600;BME280;43426;43.594;24.334;2023-03-23T04:48:55;101376.88;;;6.69;100.00
57600;BME280;43426;43.594;24.334;2023-03-23T04:51:24;101374.53;;;6.54;100.00
57600;BME280;43426;43.594;24.334;2023-03-23T04:53:49;101396.66;;;6.68;100.00
57600;BME280;43426;43.594;24.334;2023-03-23T04:56:15;101397.56;;;6.78;100.00
57600;BME280;43426;43.594;24.334;2023-03-23T04:58:41;101374.28;;;6.57;100.00
57600;BME280;43426;43.594;24.334;2023-03-23T05:01:08;101398.13;;;6.72;100.00
57600;BME280;43426;43.594;24.334;2023-03-23T05:03:34;101365.44;;;6.45;100.00
57600;BME280;43426;43.594;24.334;2023-03-23T05:06:02;101401.50;;;6.74;100.00
57600;BME280;43426;43.594;24.334;2023-03-23T05:08:27;101405.16;;;6.73;100.00
57600;BME280;43426;43.594;24.334;2023-03-23T05:10:55;101406.22;;;6.81;100.00
57600;BME280;43426;43.594;24.334;2023-03-23T05:13:21;101407.53;;;6.87;100.00
57600;BME280;43426;43.594;24.334;2023-03-23T05:15:48;101400.38;;;6.76;100.00
57600;BME280;43426;43.594;24.334;2023-03-23T05:18:14;101407.06;;;6.82;100.00
57600;BME280;43426;43.594;24.334;2023-03-23T05:20:40;101402.56;;;7.04;100.00
57600;BME280;43426;43.594;24.334;2023-03-23T05:23:08;101410.75;;;7.02;100.00
57600;BME280;43426;43.594;24.334;2023-03-23T05:25:33;101416.31;;;7.10;100.00
57600;BME280;43426;43.594;24.334;2023-03-23T05:28:02;101410.53;;;7.15;100.00
57600;BME280;43426;43.594;24.334;2023-03-23T05:30:28;101412.69;;;7.00;100.00
57600;BME280;43426;43.594;24.334;2023-03-23T05:32:55;101418.13;;;6.89;100.00
57600;BME280;43426;43.594;24.334;2023-03-23T05:35:20;101387.31;;;6.62;100.00
57600;BME280;43426;43.594;24.334;2023-03-23T05:37:46;101411.84;;;6.78;100.00
57600;BME280;43426;43.594;24.334;2023-03-23T05:40:12;101412.22;;;6.74;100.00
57600;BME280;43426;43.594;24.334;2023-03-23T05:42:39;101414.59;;;6.88;100.00
57600;BME280;43426;43.594;24.334;2023-03-23T05:45:10;101388.69;;;6.98;100.00
57600;BME280;43426;43.594;24.334;2023-03-23T05:47:38;101408.69;;;7.15;100.00
57600;BME280;43426;43.594;24.334;2023-03-23T05:50:06;101412.63;;;6.90;100.00
57600;BME280;43426;43.594;24.334;2023-03-23T05:52:34;101412.63;;;6.90;100.00
57600;BME280;43426;43.594;24.334;2023-03-23T05:55:01;101403.59;;;6.70;100.00
57600;BME280;43426;43.594;24.334;2023-03-23T05:57:26;101416.28;;;6.89;100.00
57600;BME280;43426;43.594;24.334;2023-03-23T05:59:52;101404.72;;;7.10;100.00
57600;BME280;43426;43.594;24.334;2023-03-23T06:02:18;101419.00;;;7.10;100.00
57600;BME280;43426;43.594;24.334;2023-03-23T06:04:43;101412.50;;;7.13;100.00
57600;BME280;43426;43.594;24.334;2023-03-23T06:07:10;101436.88;;;7.31;100.00
57600;BME280;43426;43.594;24.334;2023-03-23T06:09:39;101434.94;;;7.33;100.00
57600;BME280;43426;43.594;24.334;2023-03-23T06:12:05;101421.50;;;7.33;100.00
57600;BME280;43426;43.594;24.334;2023-03-23T06:14:31;101417.63;;;7.47;100.00
57600;BME280;43426;43.594;24.334;2023-03-23T06:16:57;101418.41;;;7.38;100.00
57600;BME280;43426;43.594;24.334;2023-03-23T06:19:22;101413.41;;;7.23;100.00
57600;BME280;43426;43.594;24.334;2023-03-23T06:21:48;101451.56;;;7.48;100.00
57600;BME280;43426;43.594;24.334;2023-03-23T06:24:14;101442.06;;;7.44;100.00
57600;BME280;43426;43.594;24.334;2023-03-23T06:26:40;101432.91;;;7.25;100.00
57600;BME280;43426;43.594;24.334;2023-03-23T06:29:09;101433.44;;;7.19;100.00
57600;BME280;43426;43.594;24.334;2023-03-23T06:31:40;101438.28;;;7.25;100.00
57600;BME280;43426;43.594;24.334;2023-03-23T06:34:07;101430.75;;;7.19;100.00
57600;BME280;43426;43.594;24.334;2023-03-23T06:36:34;101454.56;;;7.55;100.00
57600;BME280;43426;43.594;24.334;2023-03-23T06:38:59;101465.56;;;7.52;100.00
57600;BME280;43426;43.594;24.334;2023-03-23T06:41:25;101461.28;;;7.70;100.00
57600;BME280;43426;43.594;24.334;2023-03-23T06:43:50;101451.38;;;7.40;100.00
57600;BME280;43426;43.594;24.334;2023-03-23T06:46:16;101465.41;;;7.53;100.00
57600;BME280;43426;43.594;24.334;2023-03-23T06:48:42;101438.28;;;7.25;100.00
57600;BME280;43426;43.594;24.334;2023-03-23T06:51:07;101457.72;;;7.39;100.00
57600;BME280;43426;43.594;24.334;2023-03-23T06:53:33;101463.00;;;7.50;100.00
57600;BME280;43426;43.594;24.334;2023-03-23T06:55:58;101439.06;;;7.37;100.00
57600;BME280;43426;43.594;24.334;2023-03-23T06:58:24;101456.19;;;7.46;100.00
57600;BME280;43426;43.594;24.334;2023-03-23T07:00:56;101450.03;;;7.55;100.00
57600;BME280;43426;43.594;24.334;2023-03-23T07:03:22;101421.94;;;7.59;100.00
57600;BME280;43426;43.594;24.334;2023-03-23T07:05:48;101472.00;;;8.01;100.00
57600;BME280;43426;43.594;24.334;2023-03-23T07:08:14;101453.59;;;7.96;100.00
57600;BME280;43426;43.594;24.334;2023-03-23T07:10:39;101459.31;;;8.13;100.00
57600;BME280;43426;43.594;24.334;2023-03-23T07:13:05;101469.53;;;8.29;100.00
57600;BME280;43426;43.594;24.334;2023-03-23T07:15:30;101463.88;;;8.42;100.00
57600;BME280;43426;43.594;24.334;2023-03-23T07:17:56;101480.34;;;8.58;100.00
57600;BME280;43426;43.594;24.334;2023-03-23T07:20:22;101486.91;;;8.65;100.00
57600;BME280;43426;43.594;24.334;2023-03-23T07:22:48;101492.69;;;8.90;100.00
57600;BME280;43426;43.594;24.334;2023-03-23T07:25:13;101488.31;;;9.09;100.00
57600;BME280;43426;43.594;24.334;2023-03-23T07:27:39;101495.13;;;8.93;100.00
57600;BME280;43426;43.594;24.334;2023-03-23T07:30:05;101487.19;;;9.01;100.00
57600;BME280;43426;43.594;24.334;2023-03-23T07:32:30;101446.56;;;8.65;100.00
57600;BME280;43426;43.594;24.334;2023-03-23T07:34:56;101486.63;;;8.98;100.00
57600;BME280;43426;43.594;24.334;2023-03-23T07:37:21;101495.66;;;9.07;100.00
57600;BME280;43426;43.594;24.334;2023-03-23T07:39:48;101466.50;;;9.02;100.00
57600;BME280;43426;43.594;24.334;2023-03-23T07:42:13;101495.81;;;9.15;100.00
57600;BME280;43426;43.594;24.334;2023-03-23T07:44:39;101490.56;;;9.23;100.00
57600;BME280;43426;43.594;24.334;2023-03-23T07:47:04;101494.47;;;9.58;100.00
57600;BME280;43426;43.594;24.334;2023-03-23T07:49:29;101501.78;;;9.76;100.00
57600;BME280;43426;43.594;24.334;2023-03-23T07:51:56;101496.09;;;9.79;100.00
57600;BME280;43426;43.594;24.334;2023-03-23T07:54:21;101491.31;;;9.73;100.00
57600;BME280;43426;43.594;24.334;2023-03-23T07:56:47;101478.63;;;9.83;100.00
57600;BME280;43426;43.594;24.334;2023-03-23T07:59:12;101478.75;;;9.91;100.00
57600;BME280;43426;43.594;24.334;2023-03-23T08:01:38;101486.34;;;10.05;100.00
57600;BME280;43426;43.594;24.334;2023-03-23T08:04:04;101491.03;;;10.03;100.00
57600;BME280;43426;43.594;24.334;2023-03-23T08:06:32;101492.28;;;10.09;100.00
57600;BME280;43426;43.594;24.334;2023-03-23T08:08:58;101498.19;;;10.50;100.00
57600;BME280;43426;43.594;24.334;2023-03-23T08:11:25;101481.00;;;10.23;100.00
57600;BME280;43426;43.594;24.334;2023-03-23T08:13:50;101500.16;;;10.30;100.00
57600;BME280;43426;43.594;24.334;2023-03-23T08:16:16;101485.63;;;10.31;100.00
57600;BME280;43426;43.594;24.334;2023-03-23T08:18:41;101491.75;;;10.33;100.00
57600;BME280;43426;43.594;24.334;2023-03-23T08:21:07;101481.56;;;10.55;100.00
57600;BME280;43426;43.594;24.334;2023-03-23T08:23:35;101466.88;;;10.39;100.00
57600;BME280;43426;43.594;24.334;2023-03-23T08:26:03;101495.19;;;10.53;100.00
57600;BME280;43426;43.594;24.334;2023-03-23T08:28:28;101483.78;;;10.60;100.00
57600;BME280;43426;43.594;24.334;2023-03-23T08:30:54;101491.97;;;10.86;100.00
57600;BME280;43426;43.594;24.334;2023-03-23T08:33:19;101477.84;;;10.56;100.00
57600;BME280;43426;43.594;24.334;2023-03-23T08:35:54;101477.75;;;10.48;100.00
57600;BME280;43426;43.594;24.334;2023-03-23T08:38:20;101460.75;;;10.65;100.00
57600;BME280;43426;43.594;24.334;2023-03-23T08:40:46;101474.53;;;11.16;100.00
57600;BME280;43426;43.594;24.334;2023-03-23T08:43:13;101450.91;;;11.00;100.00
57600;BME280;43426;43.594;24.334;2023-03-23T08:45:38;101474.75;;;11.23;100.00
57600;BME280;43426;43.594;24.334;2023-03-23T08:48:04;101462.50;;;11.37;100.00
57600;BME280;43426;43.594;24.334;2023-03-23T08:50:30;101458.09;;;11.36;100.00
57600;BME280;43426;43.594;24.334;2023-03-23T08:52:56;101468.81;;;11.72;100.00
57600;BME280;43426;43.594;24.334;2023-03-23T08:55:22;101454.13;;;12.09;100.00
57600;BME280;43426;43.594;24.334;2023-03-23T08:57:48;101473.66;;;12.37;100.00
57600;BME280;43426;43.594;24.334;2023-03-23T09:00:16;101467.13;;;12.73;100.00
57600;BME280;43426;43.594;24.334;2023-03-23T09:02:48;101472.56;;;13.31;99.87
57600;BME280;43426;43.594;24.334;2023-03-23T09:05:19;101477.63;;;14.06;97.80
57600;BME280;43426;43.594;24.334;2023-03-23T09:07:47;101474.78;;;14.94;92.99
57600;BME280;43426;43.594;24.334;2023-03-23T09:10:14;101466.84;;;15.45;87.44
57600;BME280;43426;43.594;24.334;2023-03-23T09:12:40;101472.44;;;15.82;82.84
57600;BME280;43426;43.594;24.334;2023-03-23T09:15:08;101457.00;;;16.19;82.82
57600;BME280;43426;43.594;24.334;2023-03-23T09:17:36;101439.09;;;16.68;79.46
57600;BME280;43426;43.594;24.334;2023-03-23T09:20:02;101466.13;;;17.06;79.58
57600;BME280;43426;43.594;24.334;2023-03-23T09:22:32;101460.59;;;17.21;75.92
57600;BME280;43426;43.594;24.334;2023-03-23T09:24:57;101473.09;;;17.15;71.48
57600;BME280;43426;43.594;24.334;2023-03-23T09:27:22;101469.69;;;17.07;70.16
57600;BME280;43426;43.594;24.334;2023-03-23T09:29:48;101478.19;;;17.18;69.35
57600;BME280;43426;43.594;24.334;2023-03-23T09:32:14;101465.44;;;17.26;71.11
57600;BME280;43426;43.594;24.334;2023-03-23T09:34:40;101463.84;;;17.38;71.47
57600;BME280;43426;43.594;24.334;2023-03-23T09:37:06;101462.47;;;17.49;67.14
57600;BME280;43426;43.594;24.334;2023-03-23T09:39:31;101453.22;;;17.50;70.25
57600;BME280;43426;43.594;24.334;2023-03-23T09:47:41;101447.41;;;18.43;69.56
57600;BME280;43426;43.594;24.334;2023-03-23T09:50:13;101437.19;;;18.72;61.98
57600;BME280;43426;43.594;24.334;2023-03-23T09:53:00;101431.47;;;18.67;63.72
57600;BME280;43426;43.594;24.334;2023-03-23T09:55:28;101449.38;;;18.76;62.79
57600;BME280;43426;43.594;24.334;2023-03-23T10:00:38;101440.94;;;18.71;61.10
57600;BME280;43426;43.594;24.334;2023-03-23T10:03:26;101433.16;;;18.81;64.77
57600;BME280;43426;43.594;24.334;2023-03-23T10:05:54;101429.22;;;19.04;62.16
57600;BME280;43426;43.594;24.334;2023-03-23T10:08:50;101448.56;;;19.36;61.23
57600;BME280;43426;43.594;24.334;2023-03-23T10:11:36;101447.66;;;19.69;60.55
57600;BME280;43426;43.594;24.334;2023-03-23T10:19:40;101447.31;;;19.18;54.98
57600;BME280;43426;43.594;24.334;2023-03-23T10:22:11;101443.88;;;18.63;58.25
57600;BME280;43426;43.594;24.334;2023-03-23T10:27:33;101424.22;;;17.42;63.40
57600;BME280;43426;43.594;24.334;2023-03-23T10:32:44;101412.09;;;18.48;61.96
57600;BME280;43426;43.594;24.334;2023-03-23T10:35:25;101421.19;;;18.82;55.98
57600;BME280;43426;43.594;24.334;2023-03-23T10:37:58;101428.72;;;18.40;56.82
57600;BME280;43426;43.594;24.334;2023-03-23T10:40:28;101405.06;;;18.06;58.56
57600;BME280;43426;43.594;24.334;2023-03-23T10:42:54;101403.00;;;17.73;60.68
57600;BME280;43426;43.594;24.334;2023-03-23T10:45:29;101412.78;;;17.25;62.10
57600;BME280;43426;43.594;24.334;2023-03-23T10:50:34;101411.88;;;16.90;63.80
57600;BME280;43426;43.594;24.334;2023-03-23T10:53:07;101410.69;;;16.77;64.75
57600;BME280;43426;43.594;24.334;2023-03-23T10:55:39;101359.28;;;16.31;62.96
57600;BME280;43426;43.594;24.334;2023-03-23T10:58:23;101380.44;;;16.72;62.88
57600;BME280;43426;43.594;24.334;2023-03-23T11:00:49;101397.97;;;17.06;64.35
57600;BME280;43426;43.594;24.334;2023-03-23T11:05:52;101397.50;;;17.02;59.95
57600;BME280;43426;43.594;24.334;2023-03-23T11:08:21;101398.59;;;16.43;62.98
57600;BME280;43426;43.594;24.334;2023-03-23T11:10:52;101402.50;;;16.56;63.66
57600;BME280;43426;43.594;24.334;2023-03-23T11:13:20;101389.41;;;16.44;62.78
57600;BME280;43426;43.594;24.334;2023-03-23T11:15:47;101380.97;;;16.61;62.65
57600;BME280;43426;43.594;24.334;2023-03-23T11:18:23;101391.84;;;17.04;63.89
57600;BME280;43426;43.594;24.334;2023-03-23T11:20:51;101397.28;;;17.04;63.43
57600;BME280;43426;43.594;24.334;2023-03-23T11:23:24;101395.41;;;17.33;61.53
57600;BME280;43426;43.594;24.334;2023-03-23T11:28:30;101386.78;;;17.01;62.27
57600;BME280;43426;43.594;24.334;2023-03-23T11:30:58;101384.91;;;17.01;62.41
57600;BME280;43426;43.594;24.334;2023-03-23T11:33:25;101390.09;;;17.25;60.94
57600;BME280;43426;43.594;24.334;2023-03-23T11:35:54;101385.53;;;17.32;60.91
57600;BME280;43426;43.594;24.334;2023-03-23T11:38:21;101389.03;;;17.19;59.11
57600;BME280;43426;43.594;24.334;2023-03-23T11:40:51;101373.38;;;17.34;63.40
57600;BME280;43426;43.594;24.334;2023-03-23T11:43:20;101337.56;;;17.44;59.38
57600;BME280;43426;43.594;24.334;2023-03-23T11:46:01;101366.91;;;18.39;56.95
57600;BME280;43426;43.594;24.334;2023-03-23T11:48:56;101364.84;;;19.01;56.93
57600;BME280;43426;43.594;24.334;2023-03-23T11:56:41;101354.84;;;19.54;51.30
57600;BME280;43426;43.594;24.334;2023-03-23T11:59:12;101358.94;;;19.18;51.64
57600;BME280;43426;43.594;24.334;2023-03-23T12:09:58;101338.97;;;18.64;55.48
57600;BME280;43426;43.594;24.334;2023-03-23T12:15:46;101334.88;;;17.99;58.29
57600;BME280;43426;43.594;24.334;2023-03-23T12:18:37;101350.34;;;17.85;60.80
57600;BME280;43426;43.594;24.334;2023-03-23T12:27:35;101342.19;;;17.44;61.68
57600;BME280;43426;43.594;24.334;2023-03-23T12:32:57;101337.13;;;17.41;61.22
57600;BME280;43426;43.594;24.334;2023-03-23T12:43:43;101330.19;;;19.54;54.91
57600;BME280;43426;43.594;24.334;2023-03-23T12:54:23;101316.22;;;20.97;48.55
57600;BME280;43426;43.594;24.334;2023-03-23T13:08:12;101266.31;;;21.06;47.26
57600;BME280;43426;43.594;24.334;2023-03-23T13:10:44;101297.31;;;20.63;48.76
57600;BME280;43426;43.594;24.334;2023-03-23T13:13:17;101280.19;;;20.17;47.11
57600;BME280;43426;43.594;24.334;2023-03-23T13:16:07;101295.19;;;20.08;48.93
57600;BME280;43426;43.594;24.334;2023-03-23T13:21:34;101295.44;;;20.32;48.20
57600;BME280;43426;43.594;24.334;2023-03-23T13:24:06;101274.25;;;20.20;47.75
57600;BME280;43426;43.594;24.334;2023-03-23T13:26:38;101283.97;;;19.78;48.52
57600;BME280;43426;43.594;24.334;2023-03-23T13:29:17;101278.44;;;19.46;48.89
57600;BME280;43426;43.594;24.334;2023-03-23T13:31:44;101292.47;;;19.04;50.08
57600;BME280;43426;43.594;24.334;2023-03-23T13:36:39;101287.28;;;19.41;48.60
57600;BME280;43426;43.594;24.334;2023-03-23T13:39:26;101286.94;;;19.83;49.75
57600;BME280;43426;43.594;24.334;2023-03-23T13:57:53;101266.69;;;19.38;47.82
57600;BME280;43426;43.594;24.334;2023-03-23T14:05:44;101262.78;;;19.08;48.26
57600;BME280;43426;43.594;24.334;2023-03-23T14:08:14;101260.47;;;19.04;49.54
57600;BME280;43426;43.594;24.334;2023-03-23T14:10:56;101236.88;;;19.62;51.24
57600;BME280;43426;43.594;24.334;2023-03-23T14:16:19;101236.03;;;20.25;46.47
57600;BME280;43426;43.594;24.334;2023-03-23T14:18:54;101231.28;;;20.14;46.03
57600;BME280;43426;43.594;24.334;2023-03-23T14:21:38;101229.84;;;20.37;46.60
57600;BME280;43426;43.594;24.334;2023-03-23T14:24:31;101253.16;;;20.46;44.74
57600;BME280;43426;43.594;24.334;2023-03-23T14:29:35;101230.78;;;20.49;45.03
57600;BME280;43426;43.594;24.334;2023-03-23T14:32:01;101235.28;;;20.62;43.56
57600;BME280;43426;43.594;24.334;2023-03-23T14:34:31;101251.25;;;20.72;44.33
57600;BME280;43426;43.594;24.334;2023-03-23T14:36:59;101244.03;;;20.52;43.89
57600;BME280;43426;43.594;24.334;2023-03-23T14:39:27;101218.03;;;20.62;46.46
57600;BME280;43426;43.594;24.334;2023-03-23T14:42:04;101231.00;;;20.91;44.16
57600;BME280;43426;43.594;24.334;2023-03-23T14:44:33;101244.06;;;21.15;43.41
57600;BME280;43426;43.594;24.334;2023-03-23T14:47:05;101227.19;;;21.11;43.13
57600;BME280;43426;43.594;24.334;2023-03-23T14:49:35;101215.75;;;21.14;44.71
57600;BME280;43426;43.594;24.334;2023-03-23T14:54:36;101232.22;;;20.52;44.45
57600;BME280;43426;43.594;24.334;2023-03-23T14:57:12;101207.34;;;20.53;45.03
57600;BME280;43426;43.594;24.334;2023-03-23T14:59:41;101205.69;;;20.71;45.38
57600;BME280;43426;43.594;24.334;2023-03-23T15:02:11;101214.94;;;20.51;44.50
57600;BME280;43426;43.594;24.334;2023-03-23T15:04:38;101207.88;;;20.44;43.81